Strafford, VT (05072)

6:15 AM EDT on August 04, 2015 (GMT -0400)
Stone House Farm | | Change Station
CLOSE
Current Station
Personal Weather Station
Location: Strafford, VT
Elevation: 1230 ft
Nearby Weather Stations

Elev 1230 ft 43.83 °N, 72.34 °W | Updated 0 second ago

Mostly Cloudy
Mostly Cloudy
62.0 °F
Feels Like 62.0 °F
N
0.0
Wind Variable Wind from ENE
Gusts 0.0 mph

Today
High -- | Low -- °F
--% Chance of Precip.
Yesterday
High -- | Low -- °F
Precip. -- in
5:40 AM 8:09 PM
Waning Gibbous, 79% visible
Pressure 29.84 in
Visibility 2.5 miles
Clouds Few 8000 ft
Dew Point 26 °F
Humidity 25%
Rainfall 0.02 in
Snow Depth Not available.
UV 0 out of 12
Pollen 5.60 out of 12
Air Quality Not available.
Flu Activity Not available.
SPECI KLEB 041001Z 00000KT 2 1/2SM BR FEW080 17/16 A2984 RMK AO2 T01670156

More Conditions Fewer Conditions

Pressure 29.84 in
Visibility 2.5 miles
Clouds Few 8000 ft
Dew Point 26 °F
Humidity 25%
Rainfall 0.02 in
Snow Depth Not available.
UV 0 out of 12
Pollen 5.60 out of 12
Air Quality Not available.
Flu Activity Not available.
SPECI KLEB 041001Z 00000KT 2 1/2SM BR FEW080 17/16 A2984 RMK AO2 T01670156

More Conditions Fewer Conditions

10-Day Weather Forecast

×

Almanac

Astronomy

Aug. 04, 2015 Rise Set
Actual Time
Civil Twilight
Nautical Twilight
Astronomical Twilight
Moon
Length of Visible Light
Length of Day
Tomorrow will be .
, % of the Moon is Illuminated

Today's Extremes

State Highs State Lows

Community

WunderPhotos

Upload Photos

1,843,883 photos uploaded!

WunderBlogs® & News

Nearby

Air Quality

  Air Quality AQ Index Pollutant
Not available.

Snow Depth

Station Depth Elevation

Earthquake Activity

City Distance Mag. Time & Date
Minimum magnitude displayed is 2.5.

Coastal Water Temperatures

Place Temperature

Stations

Nearby Weather Stations

Station Location Temp. Windchill Dew Point Humidity Wind Precip. Elev Updated Type